createdAt,value
2022-12-19T00:00:32.423Z,-1.74
2022-12-19T00:03:00.186Z,-1.71
2022-12-19T00:05:28.339Z,-1.86
2022-12-19T00:07:57.347Z,-1.78
2022-12-19T00:10:26.805Z,-1.72
2022-12-19T00:12:54.306Z,-1.81
2022-12-19T00:15:21.910Z,-1.76
2022-12-19T00:17:49.409Z,-1.71
2022-12-19T00:20:17.760Z,-1.73
2022-12-19T00:22:46.770Z,-1.65
2022-12-19T00:25:15.162Z,-1.73
2022-12-19T00:27:44.052Z,-1.61
2022-12-19T00:30:12.138Z,-1.74
2022-12-19T00:32:39.754Z,-1.83
2022-12-19T00:35:07.466Z,-1.77
2022-12-19T00:37:35.256Z,-1.68
2022-12-19T00:40:06.339Z,-1.63
2022-12-19T00:42:34.134Z,-1.65
2022-12-19T00:45:01.773Z,-1.44
2022-12-19T00:47:29.670Z,-1.47
2022-12-19T00:49:57.260Z,-1.38
2022-12-19T00:52:24.781Z,-1.34
2022-12-19T00:54:52.931Z,-1.25
2022-12-19T00:57:20.614Z,-1.26
2022-12-19T00:59:48.505Z,-1.13
2022-12-19T01:02:16.457Z,-1.15
2022-12-19T01:04:44.273Z,-1.01
2022-12-19T01:07:13.330Z,-1.04
2022-12-19T01:09:41.033Z,-1.02
2022-12-19T01:12:29.528Z,-1.01
2022-12-19T01:15:05.005Z,-1.00
2022-12-19T01:17:37.781Z,-0.97
2022-12-19T01:20:26.185Z,-0.89
2022-12-19T01:23:00.256Z,-0.90
2022-12-19T01:25:28.492Z,-0.74
2022-12-19T01:27:56.777Z,-0.81
2022-12-19T01:30:24.452Z,-0.79
2022-12-19T01:32:52.206Z,-0.88
2022-12-19T01:35:22.422Z,-0.76
2022-12-19T01:38:07.894Z,-0.78
2022-12-19T01:40:36.020Z,-0.81
2022-12-19T01:43:03.642Z,-0.82
2022-12-19T01:45:34.868Z,-0.64
2022-12-19T01:48:18.514Z,-0.69
2022-12-19T01:51:01.325Z,-0.64
2022-12-19T01:53:48.905Z,-0.57
2022-12-19T01:56:22.607Z,-0.74
2022-12-19T01:58:50.597Z,-0.56
2022-12-19T02:01:23.735Z,-0.62
2022-12-19T02:03:51.562Z,-0.63
2022-12-19T02:06:19.825Z,-0.63
2022-12-19T02:08:48.011Z,-0.52
2022-12-19T02:11:15.631Z,-0.50
2022-12-19T02:13:45.856Z,-0.45
2022-12-19T02:16:14.919Z,-0.52
2022-12-19T02:19:02.008Z,-0.54
2022-12-19T02:21:35.804Z,-0.40
2022-12-19T02:24:03.490Z,-0.30
2022-12-19T02:26:38.030Z,-0.39
2022-12-19T02:29:35.189Z,-0.55
2022-12-19T02:32:02.699Z,-0.39
2022-12-19T02:34:41.337Z,-0.36
2022-12-19T02:37:21.226Z,-0.33
2022-12-19T02:40:01.254Z,-0.50
2022-12-19T02:42:32.800Z,-0.51
2022-12-19T02:45:03.828Z,-0.44
2022-12-19T02:47:31.929Z,-0.57
2022-12-19T02:50:01.784Z,-0.65
2022-12-19T02:52:30.781Z,-0.63
2022-12-19T02:55:09.483Z,-0.61
2022-12-19T02:57:52.275Z,-0.74
2022-12-19T03:00:21.927Z,-0.59
2022-12-19T03:03:11.108Z,-0.81
2022-12-19T03:05:57.767Z,-0.71
2022-12-19T03:08:43.239Z,-0.92
2022-12-19T03:11:13.502Z,-1.11
2022-12-19T03:14:05.726Z,-1.13
2022-12-19T03:16:36.831Z,-0.97
2022-12-19T03:19:09.756Z,-1.03
2022-12-19T03:21:41.108Z,-0.97
2022-12-19T03:24:09.712Z,-0.87
2022-12-19T03:26:52.791Z,-1.23
2022-12-19T03:29:30.824Z,-1.09
2022-12-19T03:32:00.189Z,-1.16
2022-12-19T03:34:36.816Z,-1.32
2022-12-19T03:37:04.525Z,-1.22
2022-12-19T03:39:33.056Z,-1.26
2022-12-19T03:42:21.658Z,-1.25
2022-12-19T03:44:49.945Z,-1.56
2022-12-19T03:47:26.720Z,-1.52
2022-12-19T03:49:54.255Z,-1.71
2022-12-19T03:52:39.238Z,-1.83
2022-12-19T03:55:12.697Z,-1.71
2022-12-19T03:57:48.365Z,-1.78
2022-12-19T04:00:16.625Z,-2.01
2022-12-19T04:02:46.864Z,-1.88
2022-12-19T04:05:17.891Z,-1.90
2022-12-19T04:07:45.449Z,-1.85
2022-12-19T04:10:15.726Z,-2.14
2022-12-19T04:12:47.577Z,-1.94
2022-12-19T04:15:15.306Z,-2.10
2022-12-19T04:17:51.800Z,-2.11
2022-12-19T04:20:20.200Z,-2.23
2022-12-19T04:23:10.984Z,-2.07
2022-12-19T04:25:41.091Z,-2.19
2022-12-19T04:28:23.089Z,-2.33
2022-12-19T04:30:50.631Z,-2.18
2022-12-19T04:33:18.400Z,-2.25
2022-12-19T04:35:46.083Z,-2.19
2022-12-19T04:38:13.848Z,-2.49
2022-12-19T04:40:41.945Z,-2.48
2022-12-19T04:43:10.259Z,-2.60
2022-12-19T04:45:38.011Z,-2.35
2022-12-19T04:48:05.848Z,-2.38
2022-12-19T04:50:36.305Z,-2.35
2022-12-19T04:53:04.722Z,-2.46
2022-12-19T04:55:32.276Z,-2.56
2022-12-19T04:57:59.901Z,-2.53
2022-12-19T05:00:27.489Z,-2.58
2022-12-19T05:02:55.133Z,-2.48
2022-12-19T05:05:22.984Z,-2.48
2022-12-19T05:07:51.419Z,-2.48
2022-12-19T05:10:19.159Z,-2.65
2022-12-19T05:12:47.110Z,-2.59
2022-12-19T05:15:17.570Z,-2.70
2022-12-19T05:17:45.094Z,-2.72
2022-12-19T05:20:12.716Z,-2.78
2022-12-19T05:22:40.233Z,-2.81
2022-12-19T05:25:08.497Z,-2.69
2022-12-19T05:27:36.213Z,-2.77
2022-12-19T05:30:04.095Z,-2.58
2022-12-19T05:32:32.484Z,-2.53
2022-12-19T05:35:00.192Z,-2.83
2022-12-19T05:37:27.748Z,-2.66
2022-12-19T05:39:55.517Z,-2.57
2022-12-19T05:42:23.103Z,-2.53
2022-12-19T05:44:50.656Z,-2.63
2022-12-19T05:47:18.231Z,-2.62
2022-12-19T05:49:45.888Z,-2.59
2022-12-19T05:52:13.391Z,-2.48
2022-12-19T05:54:41.137Z,-2.49
2022-12-19T05:57:08.641Z,-2.43
2022-12-19T05:59:36.251Z,-2.57
2022-12-19T06:02:03.827Z,-2.36
2022-12-19T06:04:32.545Z,-2.15
2022-12-19T06:07:00.189Z,-2.21
2022-12-19T06:09:27.955Z,-2.29
2022-12-19T06:11:55.506Z,-2.27
2022-12-19T06:14:23.412Z,-2.16
2022-12-19T06:16:52.272Z,-2.36
2022-12-19T06:19:20.842Z,-2.46
2022-12-19T06:21:48.819Z,-2.48
2022-12-19T06:24:16.503Z,-2.56
2022-12-19T06:26:44.945Z,-2.34
2022-12-19T06:29:12.813Z,-2.41
2022-12-19T06:31:40.360Z,-2.31
2022-12-19T06:34:09.942Z,-2.35
2022-12-19T06:36:37.665Z,-2.53
2022-12-19T06:39:05.267Z,-2.48
2022-12-19T06:41:56.044Z,-2.50
2022-12-19T06:44:23.565Z,-2.23
2022-12-19T06:46:52.733Z,-2.44
2022-12-19T06:49:20.955Z,-2.42
2022-12-19T06:51:48.554Z,-2.28
2022-12-19T06:54:16.152Z,-2.20
2022-12-19T06:56:44.141Z,-2.33
2022-12-19T06:59:12.737Z,-2.42
2022-12-19T07:01:52.820Z,-2.21
2022-12-19T07:04:42.708Z,-2.16
2022-12-19T07:07:10.463Z,-2.23
2022-12-19T07:09:38.011Z,-2.25
2022-12-19T07:12:05.709Z,-2.10
2022-12-19T07:14:33.830Z,-2.37
2022-12-19T07:17:01.388Z,-2.24
2022-12-19T07:19:29.064Z,-2.30
2022-12-19T07:21:56.721Z,-2.42
2022-12-19T07:24:24.334Z,-2.27
2022-12-19T07:26:51.916Z,-2.42
2022-12-19T12:44:11.310Z,0.09
2022-12-19T12:47:03.221Z,0.45
2022-12-19T12:49:42.413Z,0.15
2022-12-19T12:52:17.197Z,-0.09
2022-12-19T12:54:47.295Z,-0.25
2022-12-19T12:57:38.899Z,-0.25
2022-12-19T16:37:50.472Z,-2.17
2022-12-19T16:40:19.485Z,-2.21
2022-12-19T16:42:47.275Z,-2.21
2022-12-19T16:45:22.393Z,-2.31
2022-12-19T16:47:50.163Z,-2.19
2022-12-19T16:50:22.611Z,-2.29
2022-12-19T16:52:50.274Z,-2.24
2022-12-19T16:55:20.173Z,-1.93
2022-12-19T16:57:49.417Z,-1.89
2022-12-19T17:00:18.664Z,-1.85
2022-12-19T17:02:58.853Z,-2.13
2022-12-19T17:05:28.379Z,-1.93
2022-12-19T17:07:56.033Z,-2.18
2022-12-19T17:10:27.076Z,-2.00
2022-12-19T17:12:55.572Z,-1.92
2022-12-19T17:15:33.805Z,-1.96
2022-12-19T17:18:07.522Z,-2.03
2022-12-19T17:20:44.871Z,-1.88
2022-12-19T17:23:20.262Z,-1.78
2022-12-19T17:25:48.090Z,-1.77
2022-12-19T17:28:15.752Z,-1.82
2022-12-19T17:30:44.544Z,-1.79
2022-12-19T17:33:13.448Z,-1.80
2022-12-19T17:35:41.019Z,-1.78
2022-12-19T17:38:10.295Z,-1.74
2022-12-19T17:40:37.955Z,-1.82
2022-12-19T17:43:05.537Z,-1.91
2022-12-19T17:45:33.162Z,-1.92
2022-12-19T17:48:04.770Z,-1.70
2022-12-19T17:50:37.526Z,-1.83
2022-12-19T17:53:05.463Z,-1.83
2022-12-19T17:55:33.604Z,-1.72
2022-12-19T17:58:01.325Z,-1.60
2022-12-19T18:00:31.012Z,-1.72
2022-12-19T18:03:05.163Z,-1.56
2022-12-19T18:05:36.047Z,-1.77
2022-12-19T18:08:03.952Z,-1.85
2022-12-19T18:10:31.801Z,-1.75
2022-12-19T18:12:59.316Z,-1.66
2022-12-19T18:15:27.355Z,-1.83
2022-12-19T18:17:55.308Z,-1.92
2022-12-19T18:20:31.502Z,-2.00
2022-12-19T18:23:00.306Z,-1.80
2022-12-19T18:25:31.183Z,-1.89
2022-12-19T18:27:58.909Z,-2.11
2022-12-19T18:30:26.580Z,-1.88
2022-12-19T18:33:01.605Z,-1.94
2022-12-19T18:35:34.077Z,-1.89
2022-12-19T18:38:02.519Z,-1.81
2022-12-19T18:40:31.898Z,-1.87
2022-12-19T18:43:00.277Z,-1.72
2022-12-19T18:45:35.060Z,-1.79
2022-12-19T18:48:05.254Z,-1.77
2022-12-19T18:50:32.943Z,-1.76
2022-12-19T18:53:00.536Z,-1.98
2022-12-19T18:55:29.407Z,-1.88
2022-12-19T18:57:57.085Z,-1.98
2022-12-19T19:00:26.908Z,-1.86
2022-12-19T19:03:02.559Z,-1.79
2022-12-19T19:05:31.295Z,-1.84
2022-12-19T19:08:26.311Z,-1.75
2022-12-19T19:11:04.418Z,-1.66
2022-12-19T19:13:32.409Z,-1.57
2022-12-19T19:16:02.003Z,-1.46
2022-12-19T19:18:39.081Z,-1.72
2022-12-19T19:21:07.325Z,-1.61
2022-12-19T19:23:37.872Z,-1.60
2022-12-19T19:26:06.212Z,-1.77
2022-12-19T19:28:34.032Z,-1.79
2022-12-19T19:31:02.074Z,-1.59
2022-12-19T19:33:42.561Z,-1.59
2022-12-19T19:36:13.582Z,-1.77
2022-12-19T19:38:47.549Z,-1.71
2022-12-19T19:41:15.113Z,-1.69
2022-12-19T19:43:42.689Z,-1.60
2022-12-19T19:46:10.476Z,-1.76
2022-12-19T19:48:38.630Z,-1.83
2022-12-19T19:51:06.254Z,-1.76
2022-12-19T19:53:36.164Z,-1.83
2022-12-19T19:56:05.032Z,-1.86
2022-12-19T19:58:32.576Z,-1.92
2022-12-19T20:01:00.262Z,-1.87
2022-12-19T20:03:28.261Z,-1.83
2022-12-19T20:06:00.344Z,-1.95
2022-12-19T20:08:32.248Z,-1.67
2022-12-19T20:11:04.593Z,-1.72
2022-12-19T20:13:32.333Z,-1.55
2022-12-19T20:16:04.623Z,-1.69
2022-12-19T20:18:32.834Z,-1.87
2022-12-19T20:21:00.383Z,-1.82
2022-12-19T20:23:29.388Z,-2.08
2022-12-19T20:26:03.270Z,-2.01
2022-12-19T20:28:31.107Z,-2.04
2022-12-19T20:30:58.771Z,-1.90
2022-12-19T20:33:26.812Z,-2.00
2022-12-19T20:36:03.342Z,-2.19
2022-12-19T20:38:31.107Z,-2.02
2022-12-19T20:40:58.647Z,-2.15
2022-12-19T20:43:26.782Z,-2.05
2022-12-19T20:46:03.859Z,-1.93
2022-12-19T20:48:32.198Z,-2.01
2022-12-19T20:51:00.350Z,-2.12
2022-12-19T20:53:28.030Z,-2.13
2022-12-19T20:55:58.269Z,-2.15
2022-12-19T20:58:27.801Z,-1.87
2022-12-19T21:01:04.427Z,-1.78
2022-12-19T21:03:32.399Z,-1.98
2022-12-19T21:06:00.525Z,-1.85
2022-12-19T21:08:28.237Z,-2.00
2022-12-19T21:10:55.862Z,-1.93
2022-12-19T21:13:23.547Z,-1.96
2022-12-19T21:15:55.065Z,-2.04
2022-12-19T21:18:23.209Z,-1.95
2022-12-19T21:20:53.325Z,-1.97
2022-12-19T21:23:20.991Z,-1.99
2022-12-19T21:25:48.790Z,-2.10
2022-12-19T21:28:16.572Z,-2.02
2022-12-19T21:30:44.797Z,-2.28
2022-12-19T21:33:13.030Z,-2.11
2022-12-19T21:35:40.544Z,-2.14
2022-12-19T21:38:08.207Z,-2.24
2022-12-19T21:40:36.414Z,-2.19
2022-12-19T21:43:11.200Z,-2.21
2022-12-19T21:45:40.543Z,-2.34
2022-12-19T21:48:08.124Z,-2.35
2022-12-19T21:50:35.761Z,-2.30
2022-12-19T21:53:03.529Z,-2.24
2022-12-19T21:55:31.079Z,-2.37
2022-12-19T21:57:59.580Z,-2.36
2022-12-19T22:00:27.323Z,-2.41
2022-12-19T22:03:13.130Z,-2.43
2022-12-19T22:05:41.293Z,-2.50
2022-12-19T22:08:09.716Z,-2.47
2022-12-19T22:10:39.277Z,-2.44
2022-12-19T22:13:06.843Z,-2.44
2022-12-19T22:15:35.949Z,-2.51
2022-12-19T22:18:04.143Z,-2.50
2022-12-19T22:20:31.764Z,-2.46
2022-12-19T22:22:59.410Z,-2.36
2022-12-19T22:25:26.949Z,-2.38
2022-12-19T22:27:56.140Z,-2.41
2022-12-19T22:30:23.840Z,-2.37
2022-12-19T22:32:51.455Z,-2.38
2022-12-19T22:35:19.019Z,-2.47
2022-12-19T22:37:46.957Z,-2.70
2022-12-19T22:40:14.817Z,-2.67
2022-12-19T22:42:42.470Z,-2.45
2022-12-19T22:45:10.455Z,-2.43
2022-12-19T22:47:42.172Z,-2.63
2022-12-19T22:50:10.711Z,-2.52
2022-12-19T22:52:39.177Z,-2.46
2022-12-19T22:55:07.226Z,-2.45
2022-12-19T22:57:35.315Z,-2.51
2022-12-19T23:00:05.330Z,-2.67
2022-12-19T23:02:35.516Z,-2.64
2022-12-19T23:05:03.390Z,-2.77
2022-12-19T23:07:31.098Z,-2.80
2022-12-19T23:09:58.649Z,-2.80
2022-12-19T23:12:26.898Z,-2.85
2022-12-19T23:14:54.528Z,-2.82
2022-12-19T23:17:22.258Z,-2.78
2022-12-19T23:19:50.181Z,-2.81
2022-12-19T23:22:17.689Z,-3.03
2022-12-19T23:24:45.970Z,-2.93
2022-12-19T23:27:13.741Z,-2.98
2022-12-19T23:29:43.411Z,-2.89
2022-12-19T23:32:14.200Z,-2.93
2022-12-19T23:34:41.924Z,-2.97
2022-12-19T23:37:11.628Z,-3.01
2022-12-19T23:39:39.987Z,-3.08
2022-12-19T23:42:07.674Z,-3.12
2022-12-19T23:44:35.422Z,-3.28
2022-12-19T23:47:04.135Z,-3.29
2022-12-19T23:49:33.234Z,-3.38
2022-12-19T23:52:01.658Z,-3.33
2022-12-19T23:54:29.787Z,-3.32
2022-12-19T23:56:57.374Z,-3.27
2022-12-19T23:59:24.921Z,-3.41
